• Join FlightAware (Why Join?)
  • Login
  • US Flag 
06:00AM EDT


 

Airport Tracker/Info


-or-


 

Live Flight TrackerFlight Track Log ✈ UAL3827 ✈ 14-Jul-2013 ✈ KLEX - KORD

Flight Track Log - Related Links

Times and Time Zones

All times are in EDT time to prevent confusion due to time zone crossing. See the UAL3827 flight status page for this flight to view local times or setup timezone preferences in your user account.

Time Position Orientation Groundspeed Altitude Reporting Facility
EDT Latitude Longitude Course Direction KTS MPH feet Rate Location/Type
05:54AM 38.0633 -84.5761 290° West 232 267 2,300  Level Indianapolis Center
05:55AM 38.1131 -84.5531 20° North 226 260 4,200 1,740 Climbing Indianapolis Center
05:56AM 37.9179 -84.5964 247° West  Level FlightAware Approximate
05:56AM 38.1775 -84.5822 340° North 240 276 5,900  Level Indianapolis Center
05:57AM 37.9011 -84.6957 252° West  Level FlightAware Approximate
05:57AM 38.2519 -84.6156 341° North 272 313 8,000  Level Indianapolis Center
05:58AM 37.8664 -84.7846 256° West  Level FlightAware Approximate
05:58AM 38.3292 -84.6508 340° North 293 337 9,800  Level Indianapolis Center
05:59AM 37.8548 -84.8836 290° West  Level FlightAware Approximate
05:59AM 38.4147 -84.6903 340° North 323 372 10,800  Level Indianapolis Center
06:00AM 38.5097 -84.7347 340° North 360 414 11,700 1,020 Climbing Indianapolis Center
06:01AM 38.6086 -84.7806 340° North 372 428 12,900 1,140 Climbing Indianapolis Center
06:02AM 38.7072 -84.8300 339° North 384 442 14,100 1,140 Climbing Indianapolis Center
06:03AM 38.8114 -84.8753 341° North 392 451 15,300 1,200 Climbing Indianapolis Center
06:04AM 38.9147 -84.9231 340° North 395 455 16,500 1,140 Climbing Indianapolis Center
06:05AM 39.0172 -84.9711 340° North 395 455 17,700 1,020 Climbing Indianapolis Center
06:06AM 39.1203 -85.0208 339° North 395 455 18,600 1,020 Climbing Indianapolis Center
06:07AM 39.2239 -85.0686 340° North 397 457 19,800 1,140 Climbing Indianapolis Center
06:08AM 39.3283 -85.1175 340° North 400 460 21,000 1,140 Climbing Indianapolis Center
06:09AM 39.4333 -85.1683 340° North 403 464 22,200 1,140 Climbing Indianapolis Center
06:10AM 39.5381 -85.2175 340° North 403 464 23,400 1,020 Climbing Indianapolis Center
06:11AM 39.6417 -85.2669 340° North 401 461 24,300 900 Climbing Indianapolis Center
06:12AM 39.7456 -85.3164 340° North 401 461 25,300 1,080 Climbing Indianapolis Center
06:13AM 39.8711 -85.3761 340° North 402 463 26,500 1,080 Climbing Indianapolis Center
06:14AM 39.9647 -85.4533 328° Northwest 401 461 27,500 720 Climbing Indianapolis Center
06:15AM 40.0564 -85.5414 324° Northwest 410 472 28,000 240 Climbing Indianapolis Center
06:16AM 40.1511 -85.6364 323° Northwest 426 490 28,000  Level Indianapolis Center
06:17AM 40.2508 -85.7342 323° Northwest 448 516 28,000  Level Indianapolis Center
06:18AM 40.3508 -85.8386 321° Northwest 460 529 28,000  Level Indianapolis Center
06:19AM 40.4497 -85.9503 319° Northwest 470 541 28,000  Level Indianapolis Center
06:20AM 40.5503 -86.0628 320° Northwest 476 548 28,000  Level Indianapolis Center
06:21AM 40.6514 -86.1744 320° Northwest 479 551 28,000 -60 Level Indianapolis Center
06:22AM 40.7528 -86.2878 320° Northwest 479 551 27,900 -900 Descending Indianapolis Center
06:23AM 40.8575 -86.4044 320° Northwest 492 566 26,300 -2,040 Descending Indianapolis Center
06:24AM 40.9631 -86.5256 319° Northwest 503 579 23,900 -2,340 Descending Indianapolis Center
06:25AM 41.0628 -86.6394 319° Northwest 479 551 21,700 -2,280 Descending Indianapolis Center
06:26AM 41.1606 -86.7511 319° Northwest 467 537 19,400 -2,220 Descending Indianapolis Center
06:27AM 41.2547 -86.8608 319° Northwest 456 525 17,300 -2,340 Descending Indianapolis Center
06:28AM 41.3906 -87.0133 320° Northwest 426 490 13,900 -2,400 Descending Chicago Center
06:29AM 41.4756 -87.1106 319° Northwest 412 474 11,600 -1,440 Descending Chicago Center
06:30AM 41.5522 -87.2111 316° Northwest 400 460 11,000 -300 Descending Chicago Center
06:31AM 41.6192 -87.3211 309° West 389 448 11,100  Climbing Chicago Center
06:32AM 41.6867 -87.4275 310° West 380 437 11,100 -60 Level Chicago Center
06:33AM 41.7542 -87.5339 310° West 379 436 11,000 -600 Descending Chicago Center
06:34AM 41.8125 -87.6253 311° West 327 376 10,000 -1,200 Descending Chicago Center
06:35AM 41.8667 -87.7131 310° West 310 357 8,600 -1,440 Descending Chicago Center
06:36AM 41.9397 -87.7997 319° Northwest 293 337 7,100 -900 Descending Chicago Center
06:37AM 42.0067 -87.8553 328° Northwest 286 329 6,800 -900 Descending Chicago Center
06:38AM 42.0719 -87.9103 328° Northwest 282 325 5,400 -1,320 Descending Chicago Center
06:39AM 42.1383 -87.9603 331° Northwest 279 321 4,200 -720 Descending Chicago Center
06:40AM 42.1453 -88.0278 278° West 243 280 4,000 -660 Descending Chicago Center
06:41AM 42.0956 -88.0531 201° Southwest 227 261 2,900 -1,140 Descending Chicago Center